sensor_id;sensor_type;location;lat;lon;timestamp;P1;durP1;ratioP1;P2;durP2;ratioP2
39750;SDS011;37579;51.074;17.004;2023-02-01T00:01:26;1.33;;;0.60;;
39750;SDS011;37579;51.074;17.004;2023-02-01T00:03:52;0.95;;;0.60;;
39750;SDS011;37579;51.074;17.004;2023-02-01T00:06:18;2.13;;;0.60;;
39750;SDS011;37579;51.074;17.004;2023-02-01T00:08:44;0.80;;;0.50;;
39750;SDS011;37579;51.074;17.004;2023-02-01T00:11:10;1.60;;;0.75;;
39750;SDS011;37579;51.074;17.004;2023-02-01T00:13:37;2.20;;;0.70;;
39750;SDS011;37579;51.074;17.004;2023-02-01T00:16:06;1.33;;;0.68;;
39750;SDS011;37579;51.074;17.004;2023-02-01T00:18:44;1.83;;;0.70;;
39750;SDS011;37579;51.074;17.004;2023-02-01T00:21:11;1.13;;;0.43;;
39750;SDS011;37579;51.074;17.004;2023-02-01T00:23:37;1.80;;;0.68;;
39750;SDS011;37579;51.074;17.004;2023-02-01T00:26:07;0.82;;;0.52;;
39750;SDS011;37579;51.074;17.004;2023-02-01T00:28:38;2.38;;;0.43;;
39750;SDS011;37579;51.074;17.004;2023-02-01T00:31:04;1.58;;;0.65;;
39750;SDS011;37579;51.074;17.004;2023-02-01T00:33:30;1.67;;;0.60;;
39750;SDS011;37579;51.074;17.004;2023-02-01T00:35:57;1.67;;;0.52;;
39750;SDS011;37579;51.074;17.004;2023-02-01T00:38:27;1.60;;;0.50;;
39750;SDS011;37579;51.074;17.004;2023-02-01T00:40:54;0.80;;;0.50;;
39750;SDS011;37579;51.074;17.004;2023-02-01T00:43:26;0.77;;;0.43;;
39750;SDS011;37579;51.074;17.004;2023-02-01T00:45:52;1.70;;;0.40;;
39750;SDS011;37579;51.074;17.004;2023-02-01T00:48:18;0.85;;;0.40;;
39750;SDS011;37579;51.074;17.004;2023-02-01T00:50:44;1.20;;;0.55;;
39750;SDS011;37579;51.074;17.004;2023-02-01T00:53:10;1.30;;;0.32;;
39750;SDS011;37579;51.074;17.004;2023-02-01T00:55:36;1.40;;;0.50;;
39750;SDS011;37579;51.074;17.004;2023-02-01T00:58:02;0.60;;;0.30;;
39750;SDS011;37579;51.074;17.004;2023-02-01T01:00:31;2.03;;;0.47;;
39750;SDS011;37579;51.074;17.004;2023-02-01T01:02:57;0.70;;;0.40;;
39750;SDS011;37579;51.074;17.004;2023-02-01T01:05:23;0.68;;;0.30;;
39750;SDS011;37579;51.074;17.004;2023-02-01T01:07:49;0.77;;;0.38;;
39750;SDS011;37579;51.074;17.004;2023-02-01T01:10:15;1.17;;;0.30;;
39750;SDS011;37579;51.074;17.004;2023-02-01T01:12:41;0.85;;;0.30;;
39750;SDS011;37579;51.074;17.004;2023-02-01T01:15:07;1.02;;;0.30;;
39750;SDS011;37579;51.074;17.004;2023-02-01T01:17:33;1.33;;;0.30;;
39750;SDS011;37579;51.074;17.004;2023-02-01T01:19:59;1.33;;;0.40;;
39750;SDS011;37579;51.074;17.004;2023-02-01T01:22:25;1.55;;;0.70;;
39750;SDS011;37579;51.074;17.004;2023-02-01T01:24:50;1.00;;;0.40;;
39750;SDS011;37579;51.074;17.004;2023-02-01T01:27:16;1.15;;;0.50;;
39750;SDS011;37579;51.074;17.004;2023-02-01T01:29:48;0.77;;;0.40;;
39750;SDS011;37579;51.074;17.004;2023-02-01T01:32:14;1.42;;;0.43;;
39750;SDS011;37579;51.074;17.004;2023-02-01T01:34:40;1.15;;;0.40;;
39750;SDS011;37579;51.074;17.004;2023-02-01T01:37:06;1.30;;;0.40;;
39750;SDS011;37579;51.074;17.004;2023-02-01T01:39:32;1.67;;;0.60;;
39750;SDS011;37579;51.074;17.004;2023-02-01T01:41:58;0.80;;;0.40;;
39750;SDS011;37579;51.074;17.004;2023-02-01T01:47:22;1.17;;;0.40;;
39750;SDS011;37579;51.074;17.004;2023-02-01T01:49:50;0.82;;;0.35;;
39750;SDS011;37579;51.074;17.004;2023-02-01T01:52:16;0.38;;;0.25;;
39750;SDS011;37579;51.074;17.004;2023-02-01T01:54:49;0.50;;;0.40;;
39750;SDS011;37579;51.074;17.004;2023-02-01T01:57:19;1.20;;;0.50;;
39750;SDS011;37579;51.074;17.004;2023-02-01T02:00:08;1.13;;;0.30;;
39750;SDS011;37579;51.074;17.004;2023-02-01T02:02:39;1.13;;;0.40;;
39750;SDS011;37579;51.074;17.004;2023-02-01T02:05:08;0.73;;;0.30;;
39750;SDS011;37579;51.074;17.004;2023-02-01T02:07:36;1.02;;;0.50;;
39750;SDS011;37579;51.074;17.004;2023-02-01T02:10:06;0.82;;;0.32;;
39750;SDS011;37579;51.074;17.004;2023-02-01T02:12:39;0.88;;;0.40;;
39750;SDS011;37579;51.074;17.004;2023-02-01T02:15:07;0.60;;;0.40;;
39750;SDS011;37579;51.074;17.004;2023-02-01T02:20:52;0.28;;;0.20;;
39750;SDS011;37579;51.074;17.004;2023-02-01T02:23:38;1.02;;;0.47;;
39750;SDS011;37579;51.074;17.004;2023-02-01T02:31:40;1.20;;;0.40;;
39750;SDS011;37579;51.074;17.004;2023-02-01T02:40:13;0.77;;;0.32;;
39750;SDS011;37579;51.074;17.004;2023-02-01T02:49:14;0.45;;;0.30;;
39750;SDS011;37579;51.074;17.004;2023-02-01T02:54:38;0.80;;;0.32;;
39750;SDS011;37579;51.074;17.004;2023-02-01T02:57:22;1.42;;;0.55;;
39750;SDS011;37579;51.074;17.004;2023-02-01T03:00:15;1.33;;;0.40;;
39750;SDS011;37579;51.074;17.004;2023-02-01T03:03:07;0.63;;;0.22;;
39750;SDS011;37579;51.074;17.004;2023-02-01T03:05:52;1.02;;;0.45;;
39750;SDS011;37579;51.074;17.004;2023-02-01T03:08:20;1.15;;;0.40;;
39750;SDS011;37579;51.074;17.004;2023-02-01T03:13:31;1.02;;;0.50;;
39750;SDS011;37579;51.074;17.004;2023-02-01T03:19:03;0.85;;;0.40;;
39750;SDS011;37579;51.074;17.004;2023-02-01T03:21:55;1.02;;;0.50;;
39750;SDS011;37579;51.074;17.004;2023-02-01T03:27:02;1.05;;;0.32;;
39750;SDS011;37579;51.074;17.004;2023-02-01T03:29:47;0.80;;;0.38;;
39750;SDS011;37579;51.074;17.004;2023-02-01T03:32:22;1.00;;;0.30;;
39750;SDS011;37579;51.074;17.004;2023-02-01T03:34:48;0.60;;;0.30;;
39750;SDS011;37579;51.074;17.004;2023-02-01T03:37:18;0.95;;;0.50;;
39750;SDS011;37579;51.074;17.004;2023-02-01T03:40:00;0.93;;;0.30;;
39750;SDS011;37579;51.074;17.004;2023-02-01T03:42:34;1.38;;;0.60;;
39750;SDS011;37579;51.074;17.004;2023-02-01T03:45:10;0.88;;;0.40;;
39750;SDS011;37579;51.074;17.004;2023-02-01T03:47:40;1.25;;;0.40;;
39750;SDS011;37579;51.074;17.004;2023-02-01T03:52:40;0.40;;;0.20;;
39750;SDS011;37579;51.074;17.004;2023-02-01T03:55:27;1.27;;;0.30;;
39750;SDS011;37579;51.074;17.004;2023-02-01T03:57:57;0.68;;;0.22;;
39750;SDS011;37579;51.074;17.004;2023-02-01T04:00:25;0.65;;;0.50;;
39750;SDS011;37579;51.074;17.004;2023-02-01T04:02:54;1.90;;;0.47;;
39750;SDS011;37579;51.074;17.004;2023-02-01T04:05:21;1.27;;;0.20;;
39750;SDS011;37579;51.074;17.004;2023-02-01T04:08:00;0.80;;;0.50;;
39750;SDS011;37579;51.074;17.004;2023-02-01T04:10:26;0.60;;;0.30;;
39750;SDS011;37579;51.074;17.004;2023-02-01T04:12:52;0.55;;;0.30;;
39750;SDS011;37579;51.074;17.004;2023-02-01T04:15:18;1.13;;;0.40;;
39750;SDS011;37579;51.074;17.004;2023-02-01T04:17:44;0.70;;;0.30;;
39750;SDS011;37579;51.074;17.004;2023-02-01T04:20:10;1.23;;;0.30;;
39750;SDS011;37579;51.074;17.004;2023-02-01T04:22:36;1.02;;;0.40;;
39750;SDS011;37579;51.074;17.004;2023-02-01T04:25:02;0.80;;;0.22;;
39750;SDS011;37579;51.074;17.004;2023-02-01T04:27:30;1.30;;;0.40;;
39750;SDS011;37579;51.074;17.004;2023-02-01T04:29:56;1.02;;;0.30;;
39750;SDS011;37579;51.074;17.004;2023-02-01T04:32:22;1.25;;;0.40;;
39750;SDS011;37579;51.074;17.004;2023-02-01T04:34:48;1.08;;;0.30;;
39750;SDS011;37579;51.074;17.004;2023-02-01T04:37:14;1.15;;;0.50;;
39750;SDS011;37579;51.074;17.004;2023-02-01T04:39:40;0.60;;;0.30;;
39750;SDS011;37579;51.074;17.004;2023-02-01T04:42:05;1.35;;;0.30;;
39750;SDS011;37579;51.074;17.004;2023-02-01T04:44:31;3.55;;;0.30;;
39750;SDS011;37579;51.074;17.004;2023-02-01T04:46:57;1.10;;;0.38;;
39750;SDS011;37579;51.074;17.004;2023-02-01T04:49:23;1.60;;;0.55;;
39750;SDS011;37579;51.074;17.004;2023-02-01T04:51:51;1.60;;;0.50;;
39750;SDS011;37579;51.074;17.004;2023-02-01T04:54:17;1.17;;;0.40;;
39750;SDS011;37579;51.074;17.004;2023-02-01T04:56:43;1.67;;;0.40;;
39750;SDS011;37579;51.074;17.004;2023-02-01T04:59:10;0.60;;;0.30;;
39750;SDS011;37579;51.074;17.004;2023-02-01T05:01:37;0.65;;;0.20;;
39750;SDS011;37579;51.074;17.004;2023-02-01T05:04:03;2.15;;;0.55;;
39750;SDS011;37579;51.074;17.004;2023-02-01T05:06:28;1.20;;;0.40;;
39750;SDS011;37579;51.074;17.004;2023-02-01T05:08:54;1.17;;;0.60;;
39750;SDS011;37579;51.074;17.004;2023-02-01T05:11:20;1.30;;;0.40;;
39750;SDS011;37579;51.074;17.004;2023-02-01T05:14:04;1.50;;;0.40;;
39750;SDS011;37579;51.074;17.004;2023-02-01T05:16:30;1.25;;;0.52;;
39750;SDS011;37579;51.074;17.004;2023-02-01T05:18:56;1.00;;;0.35;;
39750;SDS011;37579;51.074;17.004;2023-02-01T05:21:22;1.30;;;0.40;;
39750;SDS011;37579;51.074;17.004;2023-02-01T05:23:48;1.00;;;0.40;;
39750;SDS011;37579;51.074;17.004;2023-02-01T05:26:33;1.00;;;0.40;;
39750;SDS011;37579;51.074;17.004;2023-02-01T05:28:58;1.75;;;0.45;;
39750;SDS011;37579;51.074;17.004;2023-02-01T05:31:24;0.93;;;0.47;;
39750;SDS011;37579;51.074;17.004;2023-02-01T05:33:50;1.40;;;0.45;;
39750;SDS011;37579;51.074;17.004;2023-02-01T05:36:16;2.05;;;0.50;;
39750;SDS011;37579;51.074;17.004;2023-02-01T05:38:42;0.73;;;0.47;;
39750;SDS011;37579;51.074;17.004;2023-02-01T05:41:08;1.98;;;0.50;;
39750;SDS011;37579;51.074;17.004;2023-02-01T05:43:34;0.93;;;0.40;;
39750;SDS011;37579;51.074;17.004;2023-02-01T05:46:00;0.77;;;0.40;;
39750;SDS011;37579;51.074;17.004;2023-02-01T05:48:26;1.08;;;0.38;;
39750;SDS011;37579;51.074;17.004;2023-02-01T05:50:52;1.20;;;0.45;;
39750;SDS011;37579;51.074;17.004;2023-02-01T05:53:18;1.05;;;0.50;;
39750;SDS011;37579;51.074;17.004;2023-02-01T05:55:44;1.90;;;0.40;;
39750;SDS011;37579;51.074;17.004;2023-02-01T05:58:10;1.40;;;0.65;;
39750;SDS011;37579;51.074;17.004;2023-02-01T06:00:35;1.20;;;0.40;;
39750;SDS011;37579;51.074;17.004;2023-02-01T06:03:01;1.35;;;0.50;;
39750;SDS011;37579;51.074;17.004;2023-02-01T06:05:27;1.15;;;0.60;;
39750;SDS011;37579;51.074;17.004;2023-02-01T06:07:53;1.15;;;0.40;;
39750;SDS011;37579;51.074;17.004;2023-02-01T06:10:19;1.95;;;0.65;;
39750;SDS011;37579;51.074;17.004;2023-02-01T06:12:45;1.00;;;0.50;;
39750;SDS011;37579;51.074;17.004;2023-02-01T06:15:12;1.13;;;0.30;;
39750;SDS011;37579;51.074;17.004;2023-02-01T06:17:39;1.02;;;0.40;;
39750;SDS011;37579;51.074;17.004;2023-02-01T06:20:06;1.55;;;0.40;;
39750;SDS011;37579;51.074;17.004;2023-02-01T06:22:33;2.40;;;0.55;;
39750;SDS011;37579;51.074;17.004;2023-02-01T06:25:01;1.17;;;0.45;;
39750;SDS011;37579;51.074;17.004;2023-02-01T06:27:31;1.60;;;0.70;;
39750;SDS011;37579;51.074;17.004;2023-02-01T06:29:57;1.67;;;0.43;;
39750;SDS011;37579;51.074;17.004;2023-02-01T06:32:23;1.00;;;0.60;;
39750;SDS011;37579;51.074;17.004;2023-02-01T06:34:50;1.13;;;0.47;;
39750;SDS011;37579;51.074;17.004;2023-02-01T06:37:18;1.33;;;0.55;;
39750;SDS011;37579;51.074;17.004;2023-02-01T06:39:44;1.65;;;0.52;;
39750;SDS011;37579;51.074;17.004;2023-02-01T06:42:10;1.48;;;0.40;;
39750;SDS011;37579;51.074;17.004;2023-02-01T06:44:36;1.80;;;0.50;;
39750;SDS011;37579;51.074;17.004;2023-02-01T06:47:05;1.85;;;0.77;;
39750;SDS011;37579;51.074;17.004;2023-02-01T06:49:31;1.08;;;0.50;;
39750;SDS011;37579;51.074;17.004;2023-02-01T06:51:56;1.83;;;0.68;;
39750;SDS011;37579;51.074;17.004;2023-02-01T06:54:25;1.00;;;0.70;;
39750;SDS011;37579;51.074;17.004;2023-02-01T06:56:51;1.92;;;0.80;;
39750;SDS011;37579;51.074;17.004;2023-02-01T06:59:17;1.65;;;0.52;;
39750;SDS011;37579;51.074;17.004;2023-02-01T07:01:43;1.60;;;0.45;;
39750;SDS011;37579;51.074;17.004;2023-02-01T07:04:10;1.90;;;0.50;;
39750;SDS011;37579;51.074;17.004;2023-02-01T07:06:39;1.50;;;0.50;;
39750;SDS011;37579;51.074;17.004;2023-02-01T07:09:05;1.23;;;0.47;;
39750;SDS011;37579;51.074;17.004;2023-02-01T07:11:31;1.15;;;0.50;;
39750;SDS011;37579;51.074;17.004;2023-02-01T07:13:57;0.68;;;0.32;;
39750;SDS011;37579;51.074;17.004;2023-02-01T07:16:23;0.80;;;0.40;;
39750;SDS011;37579;51.074;17.004;2023-02-01T07:18:50;1.73;;;0.60;;
39750;SDS011;37579;51.074;17.004;2023-02-01T07:21:17;1.40;;;0.57;;
39750;SDS011;37579;51.074;17.004;2023-02-01T07:23:43;1.90;;;0.65;;
39750;SDS011;37579;51.074;17.004;2023-02-01T07:26:10;1.20;;;0.45;;
39750;SDS011;37579;51.074;17.004;2023-02-01T07:28:38;1.88;;;0.60;;
39750;SDS011;37579;51.074;17.004;2023-02-01T07:31:05;1.02;;;0.32;;
39750;SDS011;37579;51.074;17.004;2023-02-01T07:33:35;1.67;;;0.50;;
39750;SDS011;37579;51.074;17.004;2023-02-01T07:36:03;1.80;;;0.60;;
39750;SDS011;37579;51.074;17.004;2023-02-01T07:38:31;1.38;;;0.57;;
39750;SDS011;37579;51.074;17.004;2023-02-01T07:41:00;2.63;;;0.52;;
39750;SDS011;37579;51.074;17.004;2023-02-01T07:43:27;2.03;;;0.40;;
39750;SDS011;37579;51.074;17.004;2023-02-01T07:45:54;3.25;;;0.57;;
39750;SDS011;37579;51.074;17.004;2023-02-01T07:48:21;1.80;;;0.52;;
39750;SDS011;37579;51.074;17.004;2023-02-01T07:50:48;1.25;;;0.50;;
39750;SDS011;37579;51.074;17.004;2023-02-01T07:53:21;1.70;;;0.52;;
39750;SDS011;37579;51.074;17.004;2023-02-01T07:55:47;1.15;;;0.40;;
39750;SDS011;37579;51.074;17.004;2023-02-01T07:58:13;3.22;;;0.68;;
39750;SDS011;37579;51.074;17.004;2023-02-01T08:00:38;2.03;;;0.82;;
39750;SDS011;37579;51.074;17.004;2023-02-01T08:03:22;1.83;;;0.60;;
39750;SDS011;37579;51.074;17.004;2023-02-01T08:05:53;1.58;;;0.55;;
39750;SDS011;37579;51.074;17.004;2023-02-01T08:08:20;4.90;;;0.70;;
39750;SDS011;37579;51.074;17.004;2023-02-01T08:10:46;2.17;;;0.65;;
39750;SDS011;37579;51.074;17.004;2023-02-01T08:13:12;2.40;;;0.73;;
39750;SDS011;37579;51.074;17.004;2023-02-01T08:15:38;1.60;;;0.60;;
39750;SDS011;37579;51.074;17.004;2023-02-01T08:18:04;1.25;;;0.52;;
39750;SDS011;37579;51.074;17.004;2023-02-01T08:20:30;2.03;;;0.60;;
39750;SDS011;37579;51.074;17.004;2023-02-01T08:22:56;2.10;;;0.77;;
39750;SDS011;37579;51.074;17.004;2023-02-01T08:25:22;2.08;;;0.52;;
39750;SDS011;37579;51.074;17.004;2023-02-01T08:27:49;1.60;;;0.55;;
39750;SDS011;37579;51.074;17.004;2023-02-01T08:30:15;3.28;;;1.08;;
39750;SDS011;37579;51.074;17.004;2023-02-01T08:32:41;5.30;;;2.42;;
39750;SDS011;37579;51.074;17.004;2023-02-01T08:35:07;8.10;;;3.17;;
39750;SDS011;37579;51.074;17.004;2023-02-01T08:37:33;5.57;;;2.78;;
39750;SDS011;37579;51.074;17.004;2023-02-01T08:39:59;7.03;;;3.50;;
39750;SDS011;37579;51.074;17.004;2023-02-01T08:42:25;7.97;;;3.60;;
39750;SDS011;37579;51.074;17.004;2023-02-01T08:45:09;6.63;;;3.40;;
39750;SDS011;37579;51.074;17.004;2023-02-01T08:47:35;6.60;;;3.25;;
39750;SDS011;37579;51.074;17.004;2023-02-01T08:50:01;6.38;;;3.15;;
39750;SDS011;37579;51.074;17.004;2023-02-01T08:52:27;6.70;;;3.20;;
39750;SDS011;37579;51.074;17.004;2023-02-01T08:54:53;6.07;;;3.30;;
39750;SDS011;37579;51.074;17.004;2023-02-01T08:57:19;6.95;;;3.40;;
39750;SDS011;37579;51.074;17.004;2023-02-01T08:59:45;5.20;;;2.75;;
39750;SDS011;37579;51.074;17.004;2023-02-01T09:02:14;4.43;;;2.60;;
39750;SDS011;37579;51.074;17.004;2023-02-01T09:04:41;9.43;;;3.10;;
39750;SDS011;37579;51.074;17.004;2023-02-01T09:07:08;4.20;;;2.42;;
39750;SDS011;37579;51.074;17.004;2023-02-01T09:09:34;6.30;;;2.85;;
39750;SDS011;37579;51.074;17.004;2023-02-01T09:12:01;6.15;;;2.75;;
39750;SDS011;37579;51.074;17.004;2023-02-01T09:14:27;6.45;;;2.75;;
39750;SDS011;37579;51.074;17.004;2023-02-01T09:16:53;5.65;;;2.35;;
39750;SDS011;37579;51.074;17.004;2023-02-01T09:19:19;8.70;;;3.10;;
39750;SDS011;37579;51.074;17.004;2023-02-01T09:21:45;5.30;;;2.33;;
39750;SDS011;37579;51.074;17.004;2023-02-01T09:24:10;4.90;;;2.50;;
39750;SDS011;37579;51.074;17.004;2023-02-01T09:26:36;5.80;;;2.47;;
39750;SDS011;37579;51.074;17.004;2023-02-01T09:29:02;6.80;;;2.47;;
39750;SDS011;37579;51.074;17.004;2023-02-01T09:31:32;9.13;;;2.10;;
39750;SDS011;37579;51.074;17.004;2023-02-01T09:33:58;4.72;;;2.58;;
39750;SDS011;37579;51.074;17.004;2023-02-01T09:36:26;5.97;;;2.15;;
39750;SDS011;37579;51.074;17.004;2023-02-01T09:38:52;5.20;;;2.30;;
39750;SDS011;37579;51.074;17.004;2023-02-01T09:44:57;4.85;;;2.05;;
39750;SDS011;37579;51.074;17.004;2023-02-01T09:47:27;4.88;;;1.70;;
39750;SDS011;37579;51.074;17.004;2023-02-01T09:50:56;5.45;;;1.90;;
39750;SDS011;37579;51.074;17.004;2023-02-01T09:53:11;4.47;;;2.10;;
39750;SDS011;37579;51.074;17.004;2023-02-01T09:55:45;6.18;;;2.00;;
39750;SDS011;37579;51.074;17.004;2023-02-01T09:58:14;9.88;;;1.95;;
39750;SDS011;37579;51.074;17.004;2023-02-01T10:00:52;3.47;;;1.80;;
39750;SDS011;37579;51.074;17.004;2023-02-01T10:03:20;4.78;;;1.95;;
39750;SDS011;37579;51.074;17.004;2023-02-01T10:05:55;4.78;;;2.00;;
39750;SDS011;37579;51.074;17.004;2023-02-01T10:12:00;4.07;;;1.75;;
39750;SDS011;37579;51.074;17.004;2023-02-01T10:14:35;4.75;;;1.70;;
39750;SDS011;37579;51.074;17.004;2023-02-01T10:17:29;4.47;;;1.98;;
39750;SDS011;37579;51.074;17.004;2023-02-01T10:20:29;4.03;;;1.98;;
39750;SDS011;37579;51.074;17.004;2023-02-01T10:28:50;3.58;;;1.50;;
39750;SDS011;37579;51.074;17.004;2023-02-01T10:31:17;11.27;;;2.78;;
39750;SDS011;37579;51.074;17.004;2023-02-01T10:33:48;9.45;;;1.83;;
39750;SDS011;37579;51.074;17.004;2023-02-01T10:38:46;3.38;;;1.60;;
39750;SDS011;37579;51.074;17.004;2023-02-01T10:41:16;2.45;;;1.33;;
39750;SDS011;37579;51.074;17.004;2023-02-01T10:43:45;4.38;;;1.88;;
39750;SDS011;37579;51.074;17.004;2023-02-01T10:46:17;4.30;;;1.52;;
39750;SDS011;37579;51.074;17.004;2023-02-01T10:48:42;6.75;;;1.50;;
39750;SDS011;37579;51.074;17.004;2023-02-01T10:51:14;3.53;;;1.40;;
39750;SDS011;37579;51.074;17.004;2023-02-01T10:54:18;3.15;;;1.15;;
39750;SDS011;37579;51.074;17.004;2023-02-01T10:56:41;3.38;;;1.20;;
39750;SDS011;37579;51.074;17.004;2023-02-01T10:59:17;3.22;;;1.35;;
39750;SDS011;37579;51.074;17.004;2023-02-01T11:01:45;2.53;;;0.95;;
39750;SDS011;37579;51.074;17.004;2023-02-01T11:04:14;1.92;;;1.00;;
39750;SDS011;37579;51.074;17.004;2023-02-01T11:06:52;3.85;;;1.70;;
39750;SDS011;37579;51.074;17.004;2023-02-01T11:09:35;2.40;;;1.60;;
39750;SDS011;37579;51.074;17.004;2023-02-01T11:12:10;4.40;;;1.63;;
39750;SDS011;37579;51.074;17.004;2023-02-01T11:14:54;3.35;;;1.25;;
39750;SDS011;37579;51.074;17.004;2023-02-01T11:17:43;4.30;;;1.25;;
39750;SDS011;37579;51.074;17.004;2023-02-01T11:20:15;2.60;;;1.50;;
39750;SDS011;37579;51.074;17.004;2023-02-01T11:22:52;5.93;;;1.88;;
39750;SDS011;37579;51.074;17.004;2023-02-01T11:25:21;3.20;;;1.35;;
39750;SDS011;37579;51.074;17.004;2023-02-01T11:27:48;3.38;;;1.30;;
39750;SDS011;37579;51.074;17.004;2023-02-01T11:30:22;3.15;;;1.25;;
39750;SDS011;37579;51.074;17.004;2023-02-01T11:32:57;3.65;;;1.67;;
39750;SDS011;37579;51.074;17.004;2023-02-01T11:35:24;1.98;;;0.70;;
39750;SDS011;37579;51.074;17.004;2023-02-01T11:37:57;2.17;;;1.15;;
39750;SDS011;37579;51.074;17.004;2023-02-01T11:42:55;6.55;;;1.20;;
39750;SDS011;37579;51.074;17.004;2023-02-01T11:45:30;3.65;;;1.20;;
39750;SDS011;37579;51.074;17.004;2023-02-01T11:47:59;2.70;;;0.93;;
39750;SDS011;37579;51.074;17.004;2023-02-01T11:53:42;3.25;;;1.10;;
39750;SDS011;37579;51.074;17.004;2023-02-01T11:56:21;2.35;;;1.08;;
39750;SDS011;37579;51.074;17.004;2023-02-01T12:10:16;1.63;;;0.85;;
39750;SDS011;37579;51.074;17.004;2023-02-01T12:21:11;2.42;;;1.00;;
39750;SDS011;37579;51.074;17.004;2023-02-01T12:32:15;4.35;;;1.20;;
39750;SDS011;37579;51.074;17.004;2023-02-01T12:34:58;3.42;;;1.13;;
39750;SDS011;37579;51.074;17.004;2023-02-01T12:37:41;3.65;;;1.08;;
39750;SDS011;37579;51.074;17.004;2023-02-01T12:42:41;3.08;;;1.23;;
39750;SDS011;37579;51.074;17.004;2023-02-01T12:45:15;2.85;;;1.23;;
39750;SDS011;37579;51.074;17.004;2023-02-01T12:50:50;2.88;;;0.88;;
39750;SDS011;37579;51.074;17.004;2023-02-01T12:53:25;6.97;;;1.42;;
39750;SDS011;37579;51.074;17.004;2023-02-01T12:56:00;4.57;;;1.00;;
39750;SDS011;37579;51.074;17.004;2023-02-01T12:58:38;5.05;;;1.15;;
39750;SDS011;37579;51.074;17.004;2023-02-01T13:04:05;4.40;;;1.20;;
39750;SDS011;37579;51.074;17.004;2023-02-01T13:12:27;4.00;;;1.20;;
39750;SDS011;37579;51.074;17.004;2023-02-01T13:14:58;4.70;;;1.03;;
39750;SDS011;37579;51.074;17.004;2023-02-01T13:17:30;2.97;;;1.38;;
39750;SDS011;37579;51.074;17.004;2023-02-01T13:23:04;4.20;;;0.80;;
39750;SDS011;37579;51.074;17.004;2023-02-01T13:28:16;2.17;;;0.82;;
39750;SDS011;37579;51.074;17.004;2023-02-01T13:31:07;3.83;;;1.23;;
39750;SDS011;37579;51.074;17.004;2023-02-01T13:42:51;1.92;;;0.80;;
39750;SDS011;37579;51.074;17.004;2023-02-01T13:45:21;3.80;;;1.10;;
39750;SDS011;37579;51.074;17.004;2023-02-01T13:47:51;2.03;;;0.75;;
39750;SDS011;37579;51.074;17.004;2023-02-01T13:50:27;1.88;;;0.70;;
39750;SDS011;37579;51.074;17.004;2023-02-01T13:53:13;3.53;;;0.90;;
39750;SDS011;37579;51.074;17.004;2023-02-01T13:55:45;3.38;;;0.93;;
39750;SDS011;37579;51.074;17.004;2023-02-01T13:58:20;2.33;;;0.90;;
39750;SDS011;37579;51.074;17.004;2023-02-01T14:03:55;2.83;;;0.80;;
39750;SDS011;37579;51.074;17.004;2023-02-01T14:11:36;2.45;;;1.05;;
39750;SDS011;37579;51.074;17.004;2023-02-01T14:19:17;2.13;;;0.77;;
39750;SDS011;37579;51.074;17.004;2023-02-01T14:21:47;3.15;;;1.05;;
39750;SDS011;37579;51.074;17.004;2023-02-01T14:24:20;2.30;;;0.93;;
39750;SDS011;37579;51.074;17.004;2023-02-01T14:27:01;3.58;;;0.73;;
39750;SDS011;37579;51.074;17.004;2023-02-01T14:29:53;1.73;;;0.80;;
39750;SDS011;37579;51.074;17.004;2023-02-01T14:32:36;2.50;;;1.02;;
39750;SDS011;37579;51.074;17.004;2023-02-01T14:35:18;3.80;;;0.90;;
39750;SDS011;37579;51.074;17.004;2023-02-01T14:37:45;2.83;;;0.80;;
39750;SDS011;37579;51.074;17.004;2023-02-01T14:40:19;1.48;;;0.60;;
39750;SDS011;37579;51.074;17.004;2023-02-01T14:42:50;1.65;;;0.77;;
39750;SDS011;37579;51.074;17.004;2023-02-01T14:53:04;1.73;;;0.93;;
39750;SDS011;37579;51.074;17.004;2023-02-01T15:01:21;1.92;;;0.70;;
39750;SDS011;37579;51.074;17.004;2023-02-01T15:06:40;4.43;;;1.10;;
39750;SDS011;37579;51.074;17.004;2023-02-01T15:15:01;1.98;;;0.73;;
39750;SDS011;37579;51.074;17.004;2023-02-01T15:17:34;2.45;;;0.88;;
39750;SDS011;37579;51.074;17.004;2023-02-01T15:20:01;2.03;;;0.70;;
39750;SDS011;37579;51.074;17.004;2023-02-01T15:22:30;1.50;;;0.55;;
39750;SDS011;37579;51.074;17.004;2023-02-01T15:24:57;1.25;;;0.77;;
39750;SDS011;37579;51.074;17.004;2023-02-01T15:27:25;1.73;;;0.57;;
39750;SDS011;37579;51.074;17.004;2023-02-01T15:30:08;3.50;;;1.00;;
39750;SDS011;37579;51.074;17.004;2023-02-01T15:32:43;1.55;;;0.65;;
39750;SDS011;37579;51.074;17.004;2023-02-01T15:43:25;1.48;;;0.50;;
39750;SDS011;37579;51.074;17.004;2023-02-01T15:45:52;2.15;;;0.80;;
39750;SDS011;37579;51.074;17.004;2023-02-01T15:48:23;2.38;;;1.02;;
39750;SDS011;37579;51.074;17.004;2023-02-01T15:50:51;1.25;;;0.50;;
39750;SDS011;37579;51.074;17.004;2023-02-01T15:53:18;1.90;;;0.82;;
39750;SDS011;37579;51.074;17.004;2023-02-01T15:55:46;3.97;;;0.60;;
39750;SDS011;37579;51.074;17.004;2023-02-01T15:58:18;2.00;;;0.63;;
39750;SDS011;37579;51.074;17.004;2023-02-01T16:06:07;2.03;;;0.60;;
39750;SDS011;37579;51.074;17.004;2023-02-01T16:08:48;2.00;;;0.65;;
39750;SDS011;37579;51.074;17.004;2023-02-01T16:13:50;3.60;;;0.80;;
39750;SDS011;37579;51.074;17.004;2023-02-01T16:16:16;4.53;;;0.75;;
39750;SDS011;37579;51.074;17.004;2023-02-01T16:18:42;1.42;;;0.70;;
39750;SDS011;37579;51.074;17.004;2023-02-01T16:21:09;1.60;;;0.70;;
39750;SDS011;37579;51.074;17.004;2023-02-01T16:23:35;3.20;;;0.90;;
39750;SDS011;37579;51.074;17.004;2023-02-01T16:26:02;2.35;;;0.80;;
39750;SDS011;37579;51.074;17.004;2023-02-01T16:28:28;2.00;;;0.70;;
39750;SDS011;37579;51.074;17.004;2023-02-01T16:30:54;2.55;;;0.50;;
39750;SDS011;37579;51.074;17.004;2023-02-01T16:33:21;1.40;;;0.60;;
39750;SDS011;37579;51.074;17.004;2023-02-01T16:35:48;2.25;;;0.63;;
39750;SDS011;37579;51.074;17.004;2023-02-01T16:38:15;2.78;;;1.00;;
39750;SDS011;37579;51.074;17.004;2023-02-01T16:40:44;1.83;;;0.90;;
39750;SDS011;37579;51.074;17.004;2023-02-01T16:43:15;4.22;;;0.60;;
39750;SDS011;37579;51.074;17.004;2023-02-01T16:45:43;3.83;;;0.70;;
39750;SDS011;37579;51.074;17.004;2023-02-01T16:50:56;3.03;;;0.80;;
39750;SDS011;37579;51.074;17.004;2023-02-01T16:53:25;2.25;;;1.00;;
39750;SDS011;37579;51.074;17.004;2023-02-01T16:55:52;5.55;;;0.80;;
39750;SDS011;37579;51.074;17.004;2023-02-01T16:58:19;2.60;;;0.70;;
39750;SDS011;37579;51.074;17.004;2023-02-01T17:00:46;1.55;;;0.80;;
39750;SDS011;37579;51.074;17.004;2023-02-01T17:03:13;2.35;;;0.70;;
39750;SDS011;37579;51.074;17.004;2023-02-01T17:06:02;1.33;;;0.70;;
39750;SDS011;37579;51.074;17.004;2023-02-01T17:08:28;1.20;;;0.60;;
39750;SDS011;37579;51.074;17.004;2023-02-01T17:10:59;2.70;;;0.63;;
39750;SDS011;37579;51.074;17.004;2023-02-01T17:13:26;2.88;;;0.60;;
39750;SDS011;37579;51.074;17.004;2023-02-01T17:15:54;3.40;;;0.70;;
39750;SDS011;37579;51.074;17.004;2023-02-01T17:18:27;1.75;;;0.68;;
39750;SDS011;37579;51.074;17.004;2023-02-01T17:21:00;2.42;;;0.80;;
39750;SDS011;37579;51.074;17.004;2023-02-01T17:23:27;3.70;;;0.70;;
39750;SDS011;37579;51.074;17.004;2023-02-01T17:25:55;2.25;;;0.63;;
39750;SDS011;37579;51.074;17.004;2023-02-01T17:28:21;1.25;;;0.60;;
39750;SDS011;37579;51.074;17.004;2023-02-01T17:30:47;2.22;;;0.70;;
39750;SDS011;37579;51.074;17.004;2023-02-01T17:33:17;3.90;;;0.90;;
39750;SDS011;37579;51.074;17.004;2023-02-01T17:35:49;1.63;;;0.60;;
39750;SDS011;37579;51.074;17.004;2023-02-01T17:38:15;2.50;;;0.70;;
39750;SDS011;37579;51.074;17.004;2023-02-01T17:40:41;2.08;;;0.70;;